Terminal Aerodrome Forecast
Issued by NWS Omaha/Valley, NE

Home | Current Version | Previous Version | Text Only | Print | Product List | Glossary Off
Versions: 1 2 3 4 5 6 7 8 9 10 11 12 13 14 15 16 17 18 19 20 21 22 23 24 25 26 27 28 29 30 31 32 33 34 35 36 37 38 39 40 41 42 43 44 45 46 47 48 49

000
FTUS43 KOAX 061903 AAC
TAFOFK
TAF AMD
KOFK 061903Z 0619/0718 36015G23KT 6SM HZ SCT020 BKN035
      TEMPO 0619/0622 4SM HZ BKN020
     FM062200 36017G25KT 6SM HZ SCT030 BKN250
     FM070100 36012KT P6SM SCT250
     FM070400 36007KT P6SM SKC=

USA.gov is the U.S. government's official web portal to all federal, state and local government web resources and services.